sensor_id;sensor_type;location;lat;lon;timestamp;pressure;altitude;pressure_sealevel;temperature;humidity
69784;BME280;57054;51.978;4.498;2023-05-10T00:00:25;100844.97;;;12.42;100.00
69784;BME280;57054;51.978;4.498;2023-05-10T00:02:50;100847.66;;;12.40;100.00
69784;BME280;57054;51.978;4.498;2023-05-10T00:05:15;100849.53;;;12.38;100.00
69784;BME280;57054;51.978;4.498;2023-05-10T00:07:41;100849.69;;;12.35;100.00
69784;BME280;57054;51.978;4.498;2023-05-10T00:10:10;100853.22;;;12.34;100.00
69784;BME280;57054;51.978;4.498;2023-05-10T00:12:36;100843.63;;;12.33;100.00
69784;BME280;57054;51.978;4.498;2023-05-10T00:15:01;100841.09;;;12.32;100.00
69784;BME280;57054;51.978;4.498;2023-05-10T00:17:28;100838.47;;;12.32;100.00
69784;BME280;57054;51.978;4.498;2023-05-10T00:19:53;100839.31;;;12.32;100.00
69784;BME280;57054;51.978;4.498;2023-05-10T00:22:19;100841.19;;;12.30;100.00
69784;BME280;57054;51.978;4.498;2023-05-10T00:24:44;100850.72;;;12.31;100.00
69784;BME280;57054;51.978;4.498;2023-05-10T00:27:10;100846.44;;;12.30;100.00
69784;BME280;57054;51.978;4.498;2023-05-10T00:29:35;100843.81;;;12.30;100.00
69784;BME280;57054;51.978;4.498;2023-05-10T00:32:01;100848.09;;;12.31;100.00
69784;BME280;57054;51.978;4.498;2023-05-10T00:34:26;100837.59;;;12.31;100.00
69784;BME280;57054;51.978;4.498;2023-05-10T00:36:52;100844.56;;;12.32;100.00
69784;BME280;57054;51.978;4.498;2023-05-10T00:39:17;100836.69;;;12.32;100.00
69784;BME280;57054;51.978;4.498;2023-05-10T00:41:43;100841.94;;;12.32;100.00
69784;BME280;57054;51.978;4.498;2023-05-10T00:44:08;100841.94;;;12.32;100.00
69784;BME280;57054;51.978;4.498;2023-05-10T00:46:34;100834.13;;;12.31;100.00
69784;BME280;57054;51.978;4.498;2023-05-10T00:49:00;100834.97;;;12.31;100.00
69784;BME280;57054;51.978;4.498;2023-05-10T00:51:25;100843.72;;;12.32;100.00
69784;BME280;57054;51.978;4.498;2023-05-10T00:53:51;100842.84;;;12.31;100.00
69784;BME280;57054;51.978;4.498;2023-05-10T00:56:17;100848.97;;;12.32;100.00
69784;BME280;57054;51.978;4.498;2023-05-10T00:58:43;100856.00;;;12.31;100.00
69784;BME280;57054;51.978;4.498;2023-05-10T01:01:08;100849.91;;;12.31;100.00
69784;BME280;57054;51.978;4.498;2023-05-10T01:03:35;100857.84;;;12.29;100.00
69784;BME280;57054;51.978;4.498;2023-05-10T01:06:01;100864.03;;;12.28;100.00
69784;BME280;57054;51.978;4.498;2023-05-10T01:08:26;100866.72;;;12.26;100.00
69784;BME280;57054;51.978;4.498;2023-05-10T01:10:52;100865.94;;;12.24;100.00
69784;BME280;57054;51.978;4.498;2023-05-10T01:13:37;100860.78;;;12.23;100.00
69784;BME280;57054;51.978;4.498;2023-05-10T01:16:04;100859.81;;;12.24;100.00
69784;BME280;57054;51.978;4.498;2023-05-10T01:18:33;100858.06;;;12.24;100.00
69784;BME280;57054;51.978;4.498;2023-05-10T01:21:17;100861.53;;;12.25;100.00
69784;BME280;57054;51.978;4.498;2023-05-10T01:26:56;100870.25;;;12.25;100.00
69784;BME280;57054;51.978;4.498;2023-05-10T01:32:19;100871.03;;;12.27;100.00
69784;BME280;57054;51.978;4.498;2023-05-10T01:35:03;100870.19;;;12.27;100.00
69784;BME280;57054;51.978;4.498;2023-05-10T01:37:42;100871.97;;;12.26;100.00
69784;BME280;57054;51.978;4.498;2023-05-10T01:40:22;100873.66;;;12.27;100.00
69784;BME280;57054;51.978;4.498;2023-05-10T01:42:51;100876.28;;;12.27;100.00
69784;BME280;57054;51.978;4.498;2023-05-10T01:45:24;100884.16;;;12.27;100.00
69784;BME280;57054;51.978;4.498;2023-05-10T01:48:05;100885.94;;;12.27;100.00
69784;BME280;57054;51.978;4.498;2023-05-10T01:50:32;100885.94;;;12.27;100.00
69784;BME280;57054;51.978;4.498;2023-05-10T01:53:00;100892.91;;;12.28;100.00
69784;BME280;57054;51.978;4.498;2023-05-10T01:55:30;100892.91;;;12.28;100.00
69784;BME280;57054;51.978;4.498;2023-05-10T01:58:09;100892.91;;;12.28;100.00
69784;BME280;57054;51.978;4.498;2023-05-10T02:00:36;100888.50;;;12.28;100.00
69784;BME280;57054;51.978;4.498;2023-05-10T02:03:06;100892.91;;;12.28;100.00
69784;BME280;57054;51.978;4.498;2023-05-10T02:05:34;100891.13;;;12.28;100.00
69784;BME280;57054;51.978;4.498;2023-05-10T02:08:01;100892.91;;;12.28;100.00
69784;BME280;57054;51.978;4.498;2023-05-10T02:10:28;100891.19;;;12.27;100.00
69784;BME280;57054;51.978;4.498;2023-05-10T02:12:55;100899.09;;;12.27;100.00
69784;BME280;57054;51.978;4.498;2023-05-10T02:15:24;100900.78;;;12.28;100.00
69784;BME280;57054;51.978;4.498;2023-05-10T02:17:52;100898.16;;;12.28;100.00
69784;BME280;57054;51.978;4.498;2023-05-10T02:20:20;100899.84;;;12.29;100.00
69784;BME280;57054;51.978;4.498;2023-05-10T02:22:47;100903.41;;;12.28;100.00
69784;BME280;57054;51.978;4.498;2023-05-10T02:25:13;100897.22;;;12.29;100.00
69784;BME280;57054;51.978;4.498;2023-05-10T02:27:44;100902.47;;;12.29;100.00
69784;BME280;57054;51.978;4.498;2023-05-10T02:30:10;100906.81;;;12.30;100.00
69784;BME280;57054;51.978;4.498;2023-05-10T02:32:37;100907.72;;;12.29;100.00
69784;BME280;57054;51.978;4.498;2023-05-10T02:35:03;100906.81;;;12.30;100.00
69784;BME280;57054;51.978;4.498;2023-05-10T02:37:29;100907.66;;;12.31;100.00
69784;BME280;57054;51.978;4.498;2023-05-10T02:39:56;100910.28;;;12.31;100.00
69784;BME280;57054;51.978;4.498;2023-05-10T02:42:29;100911.13;;;12.31;100.00
69784;BME280;57054;51.978;4.498;2023-05-10T02:45:17;100914.63;;;12.32;100.00
69784;BME280;57054;51.978;4.498;2023-05-10T02:47:43;100915.47;;;12.32;100.00
69784;BME280;57054;51.978;4.498;2023-05-10T02:50:09;100915.47;;;12.32;100.00
69784;BME280;57054;51.978;4.498;2023-05-10T02:52:52;100913.69;;;12.33;100.00
69784;BME280;57054;51.978;4.498;2023-05-10T02:55:22;100916.31;;;12.33;100.00
69784;BME280;57054;51.978;4.498;2023-05-10T02:57:57;100917.16;;;12.33;100.00
69784;BME280;57054;51.978;4.498;2023-05-10T03:00:24;100916.25;;;12.34;100.00
69784;BME280;57054;51.978;4.498;2023-05-10T03:02:50;100916.25;;;12.34;100.00
69784;BME280;57054;51.978;4.498;2023-05-10T03:05:15;100912.78;;;12.34;100.00
69784;BME280;57054;51.978;4.498;2023-05-10T03:07:41;100905.75;;;12.34;100.00
69784;BME280;57054;51.978;4.498;2023-05-10T03:10:07;100915.34;;;12.35;100.00
69784;BME280;57054;51.978;4.498;2023-05-10T03:18:02;100915.34;;;12.35;100.00
69784;BME280;57054;51.978;4.498;2023-05-10T03:20:35;100912.72;;;12.35;100.00
69784;BME280;57054;51.978;4.498;2023-05-10T03:23:12;100915.34;;;12.35;100.00
69784;BME280;57054;51.978;4.498;2023-05-10T03:25:39;100924.06;;;12.36;100.00
69784;BME280;57054;51.978;4.498;2023-05-10T03:28:05;100924.91;;;12.36;100.00
69784;BME280;57054;51.978;4.498;2023-05-10T03:30:31;100924.06;;;12.36;100.00
69784;BME280;57054;51.978;4.498;2023-05-10T03:32:57;100924.91;;;12.36;100.00
69784;BME280;57054;51.978;4.498;2023-05-10T03:35:23;100924.91;;;12.36;100.00
69784;BME280;57054;51.978;4.498;2023-05-10T03:37:48;100924.91;;;12.36;100.00
69784;BME280;57054;51.978;4.498;2023-05-10T03:40:14;100929.31;;;12.36;100.00
69784;BME280;57054;51.978;4.498;2023-05-10T03:42:39;100931.00;;;12.37;100.00
69784;BME280;57054;51.978;4.498;2023-05-10T03:45:06;100925.84;;;12.35;100.00
69784;BME280;57054;51.978;4.498;2023-05-10T03:47:32;100930.22;;;12.35;100.00
69784;BME280;57054;51.978;4.498;2023-05-10T03:49:57;100923.28;;;12.34;100.00
69784;BME280;57054;51.978;4.498;2023-05-10T03:52:23;100926.81;;;12.33;100.00
69784;BME280;57054;51.978;4.498;2023-05-10T03:54:48;100929.44;;;12.33;100.00
69784;BME280;57054;51.978;4.498;2023-05-10T03:57:13;100922.41;;;12.33;100.00
69784;BME280;57054;51.978;4.498;2023-05-10T03:59:39;100933.84;;;12.32;100.00
69784;BME280;57054;51.978;4.498;2023-05-10T04:02:04;100936.47;;;12.32;100.00
69784;BME280;57054;51.978;4.498;2023-05-10T04:04:30;100943.41;;;12.33;100.00
69784;BME280;57054;51.978;4.498;2023-05-10T04:06:55;100940.91;;;12.32;100.00
69784;BME280;57054;51.978;4.498;2023-05-10T04:09:20;100932.06;;;12.33;100.00
69784;BME280;57054;51.978;4.498;2023-05-10T04:11:46;100939.19;;;12.31;100.00
69784;BME280;57054;51.978;4.498;2023-05-10T04:14:11;100941.88;;;12.29;100.00
69784;BME280;57054;51.978;4.498;2023-05-10T04:16:37;100947.97;;;12.29;100.00
69784;BME280;57054;51.978;4.498;2023-05-10T04:19:02;100948.06;;;12.28;100.00
69784;BME280;57054;51.978;4.498;2023-05-10T04:21:28;100950.69;;;12.28;100.00
69784;BME280;57054;51.978;4.498;2023-05-10T04:23:54;100950.75;;;12.26;100.00
69784;BME280;57054;51.978;4.498;2023-05-10T04:26:19;100949.03;;;12.25;100.00
69784;BME280;57054;51.978;4.498;2023-05-10T04:28:45;100942.00;;;12.26;100.00
69784;BME280;57054;51.978;4.498;2023-05-10T04:31:11;100949.97;;;12.24;100.00
69784;BME280;57054;51.978;4.498;2023-05-10T04:33:36;100953.44;;;12.25;100.00
69784;BME280;57054;51.978;4.498;2023-05-10T04:36:02;100952.50;;;12.26;100.00
69784;BME280;57054;51.978;4.498;2023-05-10T04:38:28;100956.06;;;12.25;100.00
69784;BME280;57054;51.978;4.498;2023-05-10T04:40:54;100956.91;;;12.25;100.00
69784;BME280;57054;51.978;4.498;2023-05-10T04:43:19;100956.97;;;12.24;100.00
69784;BME280;57054;51.978;4.498;2023-05-10T04:45:45;100961.38;;;12.23;100.00
69784;BME280;57054;51.978;4.498;2023-05-10T04:48:11;100957.97;;;12.21;100.00
69784;BME280;57054;51.978;4.498;2023-05-10T04:50:37;100960.69;;;12.20;100.00
69784;BME280;57054;51.978;4.498;2023-05-10T04:53:02;100966.06;;;12.17;100.00
69784;BME280;57054;51.978;4.498;2023-05-10T04:55:27;100970.47;;;12.16;100.00
69784;BME280;57054;51.978;4.498;2023-05-10T04:57:53;100967.84;;;12.16;100.00
69784;BME280;57054;51.978;4.498;2023-05-10T05:00:21;100973.09;;;12.16;100.00
69784;BME280;57054;51.978;4.498;2023-05-10T05:02:47;100971.53;;;12.12;100.00
69784;BME280;57054;51.978;4.498;2023-05-10T05:05:13;100978.56;;;12.12;100.00
69784;BME280;57054;51.978;4.498;2023-05-10T05:07:38;100975.06;;;12.11;100.00
69784;BME280;57054;51.978;4.498;2023-05-10T05:10:07;100982.03;;;12.12;100.00
69784;BME280;57054;51.978;4.498;2023-05-10T05:12:33;100983.81;;;12.12;100.00
69784;BME280;57054;51.978;4.498;2023-05-10T05:14:59;100991.59;;;12.13;100.00
69784;BME280;57054;51.978;4.498;2023-05-10T05:17:25;100981.97;;;12.14;100.00
69784;BME280;57054;51.978;4.498;2023-05-10T05:19:50;101001.19;;;12.14;100.00
69784;BME280;57054;51.978;4.498;2023-05-10T05:22:15;100993.31;;;12.14;100.00
69784;BME280;57054;51.978;4.498;2023-05-10T05:24:41;101002.03;;;12.15;100.00
69784;BME280;57054;51.978;4.498;2023-05-10T05:27:06;100998.56;;;12.14;100.00
69784;BME280;57054;51.978;4.498;2023-05-10T05:29:32;101008.16;;;12.15;100.00
69784;BME280;57054;51.978;4.498;2023-05-10T05:31:57;101008.16;;;12.15;100.00
69784;BME280;57054;51.978;4.498;2023-05-10T05:34:23;101004.59;;;12.16;100.00
69784;BME280;57054;51.978;4.498;2023-05-10T05:36:49;101009.84;;;12.16;100.00
69784;BME280;57054;51.978;4.498;2023-05-10T05:39:15;101009.06;;;12.14;100.00
69784;BME280;57054;51.978;4.498;2023-05-10T05:41:40;101015.22;;;12.13;100.00
69784;BME280;57054;51.978;4.498;2023-05-10T05:44:06;101015.31;;;12.12;100.00
69784;BME280;57054;51.978;4.498;2023-05-10T05:46:31;101012.59;;;12.13;100.00
69784;BME280;57054;51.978;4.498;2023-05-10T05:48:57;101018.72;;;12.14;100.00
69784;BME280;57054;51.978;4.498;2023-05-10T05:51:22;101010.91;;;12.12;100.00
69784;BME280;57054;51.978;4.498;2023-05-10T05:53:47;101027.44;;;12.14;100.00
69784;BME280;57054;51.978;4.498;2023-05-10T05:56:13;101021.34;;;12.14;100.00
69784;BME280;57054;51.978;4.498;2023-05-10T05:58:38;101023.03;;;12.15;100.00
69784;BME280;57054;51.978;4.498;2023-05-10T06:01:04;101022.13;;;12.16;100.00
69784;BME280;57054;51.978;4.498;2023-05-10T06:03:29;101023.81;;;12.17;100.00
69784;BME280;57054;51.978;4.498;2023-05-10T06:05:55;101022.91;;;12.18;100.00
69784;BME280;57054;51.978;4.498;2023-05-10T06:08:20;101024.69;;;12.17;100.00
69784;BME280;57054;51.978;4.498;2023-05-10T06:10:46;101032.56;;;12.17;100.00
69784;BME280;57054;51.978;4.498;2023-05-10T06:13:11;101032.56;;;12.17;100.00
69784;BME280;57054;51.978;4.498;2023-05-10T06:15:37;101028.22;;;12.16;100.00
69784;BME280;57054;51.978;4.498;2023-05-10T06:18:03;101026.44;;;12.17;100.00
69784;BME280;57054;51.978;4.498;2023-05-10T06:20:28;101031.69;;;12.17;100.00
69784;BME280;57054;51.978;4.498;2023-05-10T06:22:54;101026.38;;;12.18;100.00
69784;BME280;57054;51.978;4.498;2023-05-10T06:25:19;101030.66;;;12.21;100.00
69784;BME280;57054;51.978;4.498;2023-05-10T06:27:45;101033.13;;;12.24;100.00
69784;BME280;57054;51.978;4.498;2023-05-10T06:30:10;101033.91;;;12.26;100.00
69784;BME280;57054;51.978;4.498;2023-05-10T06:32:38;101038.19;;;12.28;100.00
69784;BME280;57054;51.978;4.498;2023-05-10T06:35:03;101036.28;;;12.32;100.00
69784;BME280;57054;51.978;4.498;2023-05-10T06:37:29;101038.84;;;12.34;100.00
69784;BME280;57054;51.978;4.498;2023-05-10T06:39:54;101037.91;;;12.35;100.00
69784;BME280;57054;51.978;4.498;2023-05-10T06:42:20;101038.78;;;12.35;100.00
69784;BME280;57054;51.978;4.498;2023-05-10T06:44:45;101041.31;;;12.37;100.00
69784;BME280;57054;51.978;4.498;2023-05-10T06:47:11;101039.56;;;12.37;100.00
69784;BME280;57054;51.978;4.498;2023-05-10T06:49:36;101039.56;;;12.37;100.00
69784;BME280;57054;51.978;4.498;2023-05-10T06:52:02;101045.53;;;12.41;100.00
69784;BME280;57054;51.978;4.498;2023-05-10T06:54:27;101045.44;;;12.42;100.00
69784;BME280;57054;51.978;4.498;2023-05-10T06:56:53;101040.03;;;12.45;100.00
69784;BME280;57054;51.978;4.498;2023-05-10T06:59:18;101048.69;;;12.47;100.00
69784;BME280;57054;51.978;4.498;2023-05-10T07:01:44;101043.38;;;12.49;100.00
69784;BME280;57054;51.978;4.498;2023-05-10T07:04:10;101052.97;;;12.50;100.00
69784;BME280;57054;51.978;4.498;2023-05-10T07:06:35;101043.25;;;12.52;100.00
69784;BME280;57054;51.978;4.498;2023-05-10T07:09:01;101050.19;;;12.53;100.00
69784;BME280;57054;51.978;4.498;2023-05-10T07:11:26;101061.59;;;12.54;100.00
69784;BME280;57054;51.978;4.498;2023-05-10T07:13:52;101065.91;;;12.55;100.00
69784;BME280;57054;51.978;4.498;2023-05-10T07:16:17;101059.72;;;12.56;100.00
69784;BME280;57054;51.978;4.498;2023-05-10T07:18:42;101059.72;;;12.56;100.00
69784;BME280;57054;51.978;4.498;2023-05-10T07:21:08;101062.38;;;12.56;100.00
69784;BME280;57054;51.978;4.498;2023-05-10T07:23:33;101066.69;;;12.57;100.00
69784;BME280;57054;51.978;4.498;2023-05-10T07:25:59;101066.69;;;12.57;100.00
69784;BME280;57054;51.978;4.498;2023-05-10T07:28:24;101064.91;;;12.57;100.00
69784;BME280;57054;51.978;4.498;2023-05-10T07:30:50;101071.03;;;12.58;100.00
69784;BME280;57054;51.978;4.498;2023-05-10T07:33:15;101069.16;;;12.60;100.00
69784;BME280;57054;51.978;4.498;2023-05-10T07:35:41;101069.16;;;12.60;100.00
69784;BME280;57054;51.978;4.498;2023-05-10T07:38:07;101070.88;;;12.61;100.00
69784;BME280;57054;51.978;4.498;2023-05-10T07:40:33;101075.22;;;12.62;100.00
69784;BME280;57054;51.978;4.498;2023-05-10T07:42:58;101077.00;;;12.61;100.00
69784;BME280;57054;51.978;4.498;2023-05-10T07:45:24;101076.16;;;12.61;100.00
69784;BME280;57054;51.978;4.498;2023-05-10T07:47:50;101077.91;;;12.60;100.00
69784;BME280;57054;51.978;4.498;2023-05-10T07:50:15;101084.16;;;12.58;100.00
69784;BME280;57054;51.978;4.498;2023-05-10T07:52:41;101081.53;;;12.58;100.00
69784;BME280;57054;51.978;4.498;2023-05-10T07:55:07;101077.13;;;12.58;100.00
69784;BME280;57054;51.978;4.498;2023-05-10T07:57:34;101077.91;;;12.60;100.00
69784;BME280;57054;51.978;4.498;2023-05-10T07:59:59;101081.41;;;12.61;100.00
69784;BME280;57054;51.978;4.498;2023-05-10T08:02:24;101083.88;;;12.64;100.00
69784;BME280;57054;51.978;4.498;2023-05-10T08:04:50;101084.75;;;12.64;100.00
69784;BME280;57054;51.978;4.498;2023-05-10T08:07:15;101081.19;;;12.65;100.00
69784;BME280;57054;51.978;4.498;2023-05-10T08:09:41;101092.47;;;12.67;100.00
69784;BME280;57054;51.978;4.498;2023-05-10T08:12:06;101098.50;;;12.70;100.00
69784;BME280;57054;51.978;4.498;2023-05-10T08:14:32;101087.16;;;12.69;100.00
69784;BME280;57054;51.978;4.498;2023-05-10T08:16:57;101094.06;;;12.72;100.00
69784;BME280;57054;51.978;4.498;2023-05-10T08:19:23;101092.28;;;12.72;100.00
69784;BME280;57054;51.978;4.498;2023-05-10T08:21:49;101098.31;;;12.74;100.00
69784;BME280;57054;51.978;4.498;2023-05-10T08:24:14;101104.41;;;12.75;100.00
69784;BME280;57054;51.978;4.498;2023-05-10T08:26:40;101101.72;;;12.76;100.00
69784;BME280;57054;51.978;4.498;2023-05-10T08:29:05;101113.06;;;12.77;100.00
69784;BME280;57054;51.978;4.498;2023-05-10T08:31:30;101109.47;;;12.79;100.00
69784;BME280;57054;51.978;4.498;2023-05-10T08:33:56;101115.56;;;12.80;100.00
69784;BME280;57054;51.978;4.498;2023-05-10T08:36:21;101106.78;;;12.81;100.00
69784;BME280;57054;51.978;4.498;2023-05-10T08:38:52;101114.59;;;12.82;100.00
69784;BME280;57054;51.978;4.498;2023-05-10T08:41:19;101113.66;;;12.83;100.00
69784;BME280;57054;51.978;4.498;2023-05-10T08:43:46;101111.81;;;12.85;100.00
69784;BME280;57054;51.978;4.498;2023-05-10T08:46:15;101123.09;;;12.87;100.00
69784;BME280;57054;51.978;4.498;2023-05-10T08:48:44;101126.66;;;12.86;100.00
69784;BME280;57054;51.978;4.498;2023-05-10T08:51:13;101128.28;;;12.89;100.00
69784;BME280;57054;51.978;4.498;2023-05-10T08:53:39;101130.00;;;12.90;100.00
69784;BME280;57054;51.978;4.498;2023-05-10T08:56:04;101133.41;;;12.92;100.00
69784;BME280;57054;51.978;4.498;2023-05-10T08:58:30;101138.53;;;12.95;100.00
69784;BME280;57054;51.978;4.498;2023-05-10T09:00:56;101141.16;;;12.95;100.00
69784;BME280;57054;51.978;4.498;2023-05-10T09:03:23;101143.69;;;12.97;100.00
69784;BME280;57054;51.978;4.498;2023-05-10T09:05:48;101148.81;;;13.00;100.00
69784;BME280;57054;51.978;4.498;2023-05-10T09:08:15;101148.81;;;13.00;100.00
69784;BME280;57054;51.978;4.498;2023-05-10T09:10:44;101149.59;;;13.02;100.00
69784;BME280;57054;51.978;4.498;2023-05-10T09:13:10;101146.06;;;13.03;100.00
69784;BME280;57054;51.978;4.498;2023-05-10T09:15:37;101151.25;;;13.04;100.00
69784;BME280;57054;51.978;4.498;2023-05-10T09:18:02;101149.41;;;13.06;100.00
69784;BME280;57054;51.978;4.498;2023-05-10T09:20:28;101156.41;;;13.06;100.00
69784;BME280;57054;51.978;4.498;2023-05-10T09:22:53;101153.72;;;13.07;100.00
69784;BME280;57054;51.978;4.498;2023-05-10T09:25:19;101155.38;;;13.10;100.00
69784;BME280;57054;51.978;4.498;2023-05-10T09:27:45;101154.38;;;13.13;100.00
69784;BME280;57054;51.978;4.498;2023-05-10T09:30:24;101158.66;;;13.15;100.00
69784;BME280;57054;51.978;4.498;2023-05-10T09:32:51;101162.91;;;13.18;100.00
69784;BME280;57054;51.978;4.498;2023-05-10T09:35:18;101160.13;;;13.21;100.00
69784;BME280;57054;51.978;4.498;2023-05-10T09:37:48;101167.88;;;13.24;100.00
69784;BME280;57054;51.978;4.498;2023-05-10T09:40:18;101171.28;;;13.26;100.00
69784;BME280;57054;51.978;4.498;2023-05-10T09:43:08;101171.13;;;13.29;100.00
69784;BME280;57054;51.978;4.498;2023-05-10T09:45:36;101176.31;;;13.32;100.00
69784;BME280;57054;51.978;4.498;2023-05-10T09:48:02;101174.44;;;13.34;100.00
69784;BME280;57054;51.978;4.498;2023-05-10T09:50:29;101174.25;;;13.39;100.00
69784;BME280;57054;51.978;4.498;2023-05-10T09:53:02;101176.78;;;13.40;100.00
69784;BME280;57054;51.978;4.498;2023-05-10T09:55:42;101182.75;;;13.44;100.00
69784;BME280;57054;51.978;4.498;2023-05-10T09:58:10;101181.69;;;13.48;100.00
69784;BME280;57054;51.978;4.498;2023-05-10T10:00:37;101192.94;;;13.52;100.00
69784;BME280;57054;51.978;4.498;2023-05-10T10:03:03;101186.59;;;13.56;100.00
69784;BME280;57054;51.978;4.498;2023-05-10T10:05:30;101194.34;;;13.59;100.00
69784;BME280;57054;51.978;4.498;2023-05-10T10:08:00;101183.66;;;13.62;100.00
69784;BME280;57054;51.978;4.498;2023-05-10T10:10:26;101190.50;;;13.66;100.00
69784;BME280;57054;51.978;4.498;2023-05-10T10:12:53;101191.34;;;13.67;100.00
69784;BME280;57054;51.978;4.498;2023-05-10T10:15:20;101186.78;;;13.70;100.00
69784;BME280;57054;51.978;4.498;2023-05-10T10:17:46;101189.34;;;13.72;100.00
69784;BME280;57054;51.978;4.498;2023-05-10T10:20:12;101191.88;;;13.73;100.00
69784;BME280;57054;51.978;4.498;2023-05-10T10:22:37;101191.81;;;13.75;100.00
69784;BME280;57054;51.978;4.498;2023-05-10T10:25:04;101195.16;;;13.78;100.00
69784;BME280;57054;51.978;4.498;2023-05-10T10:27:43;101198.66;;;13.79;100.00
69784;BME280;57054;51.978;4.498;2023-05-10T10:30:19;101201.34;;;13.77;100.00
69784;BME280;57054;51.978;4.498;2023-05-10T10:36:04;101208.03;;;13.85;100.00
69784;BME280;57054;51.978;4.498;2023-05-10T10:41:33;101209.66;;;13.87;100.00
69784;BME280;57054;51.978;4.498;2023-05-10T10:57:25;101220.50;;;13.98;100.00
69784;BME280;57054;51.978;4.498;2023-05-10T10:59:53;101222.28;;;13.98;99.98
69784;BME280;57054;51.978;4.498;2023-05-10T11:02:43;101218.03;;;13.95;99.66
69784;BME280;57054;51.978;4.498;2023-05-10T11:07:59;101225.06;;;13.95;100.00
69784;BME280;57054;51.978;4.498;2023-05-10T11:10:26;101223.38;;;13.94;99.93
69784;BME280;57054;51.978;4.498;2023-05-10T11:13:02;101216.41;;;13.93;99.97
69784;BME280;57054;51.978;4.498;2023-05-10T11:15:32;101220.03;;;13.90;99.97
69784;BME280;57054;51.978;4.498;2023-05-10T11:17:58;101220.13;;;13.89;99.85
69784;BME280;57054;51.978;4.498;2023-05-10T11:20:27;101227.31;;;13.85;99.89
69784;BME280;57054;51.978;4.498;2023-05-10T11:22:58;101222.88;;;13.86;99.98
69784;BME280;57054;51.978;4.498;2023-05-10T11:25:41;101231.66;;;13.86;99.78
69784;BME280;57054;51.978;4.498;2023-05-10T11:28:06;101232.44;;;13.88;100.00
69784;BME280;57054;51.978;4.498;2023-05-10T11:30:31;101229.56;;;13.93;100.00
69784;BME280;57054;51.978;4.498;2023-05-10T11:32:57;101228.47;;;13.97;100.00
69784;BME280;57054;51.978;4.498;2023-05-10T11:35:23;101230.13;;;13.99;99.97
69784;BME280;57054;51.978;4.498;2023-05-10T11:37:48;101234.31;;;14.04;99.99
69784;BME280;57054;51.978;4.498;2023-05-10T11:40:13;101231.75;;;14.02;98.90
69784;BME280;57054;51.978;4.498;2023-05-10T11:42:39;101229.03;;;14.04;98.62
69784;BME280;57054;51.978;4.498;2023-05-10T11:45:05;101230.00;;;14.02;98.90
69784;BME280;57054;51.978;4.498;2023-05-10T11:47:31;101232.69;;;14.01;98.31
69784;BME280;57054;51.978;4.498;2023-05-10T11:49:57;101227.44;;;14.01;97.87
69784;BME280;57054;51.978;4.498;2023-05-10T11:52:23;101229.13;;;14.02;98.39
69784;BME280;57054;51.978;4.498;2023-05-10T11:54:53;101233.53;;;14.01;97.44
69784;BME280;57054;51.978;4.498;2023-05-10T11:57:19;101237.00;;;14.02;97.23
69784;BME280;57054;51.978;4.498;2023-05-10T11:59:53;101245.63;;;14.06;98.19
69784;BME280;57054;51.978;4.498;2023-05-10T12:02:18;101240.22;;;14.09;97.92
69784;BME280;57054;51.978;4.498;2023-05-10T12:04:44;101240.97;;;14.11;98.14
69784;BME280;57054;51.978;4.498;2023-05-10T12:07:10;101239.13;;;14.13;97.80
69784;BME280;57054;51.978;4.498;2023-05-10T12:09:35;101239.06;;;14.14;98.00
69784;BME280;57054;51.978;4.498;2023-05-10T12:12:02;101249.59;;;14.14;97.60
69784;BME280;57054;51.978;4.498;2023-05-10T12:14:27;101244.25;;;14.16;97.79
69784;BME280;57054;51.978;4.498;2023-05-10T12:16:53;101245.16;;;14.15;98.04
69784;BME280;57054;51.978;4.498;2023-05-10T12:19:22;101253.94;;;14.15;97.77
69784;BME280;57054;51.978;4.498;2023-05-10T12:21:47;101254.00;;;14.14;97.74
69784;BME280;57054;51.978;4.498;2023-05-10T12:24:13;101241.13;;;14.08;96.79
69784;BME280;57054;51.978;4.498;2023-05-10T12:26:41;101257.88;;;14.07;97.05
69784;BME280;57054;51.978;4.498;2023-05-10T12:29:14;101251.91;;;14.03;97.28
69784;BME280;57054;51.978;4.498;2023-05-10T12:31:57;101255.50;;;14.00;97.72
69784;BME280;57054;51.978;4.498;2023-05-10T12:34:27;101256.47;;;13.99;97.54
69784;BME280;57054;51.978;4.498;2023-05-10T12:36:55;101258.16;;;14.00;97.82
69784;BME280;57054;51.978;4.498;2023-05-10T12:39:21;101264.34;;;13.99;97.06
69784;BME280;57054;51.978;4.498;2023-05-10T12:41:47;101260.72;;;14.02;97.15
69784;BME280;57054;51.978;4.498;2023-05-10T12:44:12;101258.00;;;14.04;97.26
69784;BME280;57054;51.978;4.498;2023-05-10T12:46:37;101263.22;;;14.05;97.13
69784;BME280;57054;51.978;4.498;2023-05-10T12:49:03;101265.69;;;14.08;97.36
69784;BME280;57054;51.978;4.498;2023-05-10T12:51:28;101267.38;;;14.09;97.00
69784;BME280;57054;51.978;4.498;2023-05-10T12:53:53;101272.59;;;14.11;95.92
69784;BME280;57054;51.978;4.498;2023-05-10T12:56:19;101266.69;;;14.06;95.33
69784;BME280;57054;51.978;4.498;2023-05-10T12:58:45;101276.38;;;14.05;95.16
69784;BME280;57054;51.978;4.498;2023-05-10T13:01:14;101272.81;;;14.06;95.71
69784;BME280;57054;51.978;4.498;2023-05-10T13:03:39;101276.25;;;14.08;95.95
69784;BME280;57054;51.978;4.498;2023-05-10T13:06:05;101280.50;;;14.11;96.14
69784;BME280;57054;51.978;4.498;2023-05-10T13:08:31;101279.47;;;14.13;96.24
69784;BME280;57054;51.978;4.498;2023-05-10T13:10:59;101285.63;;;14.14;96.75
69784;BME280;57054;51.978;4.498;2023-05-10T13:13:25;101274.22;;;14.13;96.41